Alferez Armando Rodriguez Airport


Codes: SATK/LLS
Name: Alferez Armando Rodriguez Airport
City: Las Lomitas
Country: Argentina
Elevation: 426 ft.

Photos at Alferez Armando Rodriguez Airport


   Photos courtesy of SpottingLog. You can add your own sightings and photos by signing up for a free trial today.



No photos found.

Weather at Alferez Armando Rodriguez Airport


Time (UTC)DescriptionTempratureWindCloud coverageVisibilityPressureHumidity
19-Apr-2024 03:00Clear Sky15°C4 mph, NE2%10000m1016hPa70%
19-Apr-2024 06:00Clear Sky14°C4 mph, NE2%10000m1016hPa71%
19-Apr-2024 09:00Clear Sky13°C4 mph, NE1%10000m1015hPa74%
19-Apr-2024 12:00Clear Sky17°C7 mph, NE0%10000m1015hPa58%
19-Apr-2024 15:00Clear Sky27°C9 mph, NE0%10000m1014hPa28%
19-Apr-2024 18:00Clear Sky30°C9 mph, NE0%10000m1010hPa23%
19-Apr-2024 21:00Clear Sky26°C7 mph, NE0%10000m1010hPa39%
20-Apr-2024 00:00Clear Sky20°C7 mph, NE0%10000m1011hPa50%
20-Apr-2024 03:00Clear Sky19°C4 mph, NE0%10000m1012hPa60%
20-Apr-2024 06:00Clear Sky18°C7 mph, E0%10000m1011hPa63%
20-Apr-2024 09:00Clear Sky17°C7 mph, NE0%10000m1012hPa69%
20-Apr-2024 12:00Clear Sky22°C7 mph, NE0%10000m1013hPa57%
20-Apr-2024 15:00Clear Sky31°C9 mph, NE0%10000m1012hPa43%
20-Apr-2024 18:00Clear Sky34°C11 mph, NE0%10000m1009hPa39%
20-Apr-2024 21:00Clear Sky30°C7 mph, NE0%10000m1008hPa52%
21-Apr-2024 00:00Clear Sky25°C4 mph, NE6%10000m1009hPa70%
21-Apr-2024 03:00Clear Sky24°C7 mph, E2%10000m1009hPa74%
21-Apr-2024 06:00Few Clouds25°C9 mph, NE20%10000m1008hPa70%
21-Apr-2024 09:00Broken Clouds25°C9 mph, NE56%10000m1008hPa67%
21-Apr-2024 12:00Broken Clouds26°C7 mph, NE58%10000m1010hPa71%
21-Apr-2024 15:00Clear Sky34°C11 mph, NE9%10000m1009hPa45%
21-Apr-2024 18:00Scattered Clouds35°C11 mph, N32%10000m1005hPa40%
21-Apr-2024 21:00Scattered Clouds33°C11 mph, NE34%10000m1004hPa45%
22-Apr-2024 00:00Scattered Clouds29°C9 mph, NE47%10000m1005hPa57%
22-Apr-2024 03:00Broken Clouds28°C7 mph, NE73%10000m1006hPa60%
22-Apr-2024 06:00Light Rain26°C7 mph, NE86%10000m1006hPa72%
22-Apr-2024 09:00Light Rain25°C4 mph, NE89%10000m1005hPa81%
22-Apr-2024 12:00Broken Clouds28°C7 mph, N61%10000m1007hPa67%
22-Apr-2024 15:00Clear Sky35°C11 mph, N0%10000m1006hPa41%
22-Apr-2024 18:00Scattered Clouds32°C4 mph, N33%10000m1004hPa53%
22-Apr-2024 21:00Broken Clouds30°C0 mph, N75%10000m1004hPa56%
23-Apr-2024 00:00Overcast Clouds29°C4 mph, SE89%10000m1006hPa63%
23-Apr-2024 03:00Light Rain25°C7 mph, SE99%10000m1008hPa90%
23-Apr-2024 06:00Light Rain24°C7 mph, SE96%10000m1008hPa98%
23-Apr-2024 09:00Light Rain24°C9 mph, SE100%10000m1008hPa98%
23-Apr-2024 12:00Light Rain24°C4 mph, SE100%10000m1010hPa97%
23-Apr-2024 15:00Light Rain27°C4 mph, E92%10000m1010hPa84%
23-Apr-2024 18:00Light Rain29°C4 mph, S93%10000m1008hPa74%
23-Apr-2024 21:00Light Rain24°C9 mph, S54%10000m1009hPa91%
24-Apr-2024 00:00Light Rain22°C9 mph, S70%10000m1011hPa96%